Sunbury, NC (27979)

12:55 PM EST on December 06, 2016 (GMT -0500)
Silver Springs Rd. | | Change Station

Elev 39 ft 36.43 °N, 76.62 °W | Updated 8 seconds ago

Light Drizzle
Light Drizzle
52.6 °F
Feels Like 52.6 °F
N
8.0
Wind Variable Wind from NE

Today
High -- | Low -- °F
--% Chance of Precip.
Yesterday
High -- | Low -- °F
Precip. -- in
Pressure 29.82 in
Visibility 5.0 miles
Clouds Overcast 600 ft
Dew Point 50 °F
Humidity 91%
Rainfall 0.04 in
Snow Depth Not available.
7:04 AM 4:50 PM
Waxing Crescent, 43% visible
METAR KSFQ 061735Z AUTO 08009KT 5SM -DZ OVC006 11/11 A2982 RMK AO2 T01100110
Pressure 29.82 in
Visibility 5.0 miles
Clouds Overcast 600 ft
Dew Point 50 °F
Humidity 91%
Rainfall 0.04 in
Snow Depth Not available.
7:04 AM 4:50 PM
Waxing Crescent, 43% visible
METAR KSFQ 061735Z AUTO 08009KT 5SM -DZ OVC006 11/11 A2982 RMK AO2 T01100110

10-Day Weather Forecast

Almanac

Astronomy

Dec. 06, 2016 Rise Set
Actual Time
Civil Twilight
Nautical Twilight
Astronomical Twilight
Moon
Length of Visible Light
Length of Day
Tomorrow will be .
, % of the Moon is Illuminated

Today's Extremes

State Highs State Lows

Community

WunderPhotos

Upload Photos

1,955,986 photos uploaded!

WunderBlog® & News

Nearby

Air Quality

  Air Quality AQ Index Pollutant
Not available.

Snow Depth

Station Depth Elevation

Earthquake Activity

City Distance Mag. Time & Date
Minimum magnitude displayed is 2.5.

Coastal Water Temperatures

Place Temperature

Stations

Nearby Weather Stations

Station Location Temp. Windchill Dew Point Humidity Wind Precip. Elev Updated Type
                   

Watches & Warnings

There are currently no watches in effect.